Time;durP1;ratioP1;P1;durP2;ratioP2;P2;SDS_P1;SDS_P2;PMS_P1;PMS_P2;Temp;Humidity;BMP_temperature;BMP_pressure;BME280_temperature;BME280_humidity;BME280_pressure;Samples;Min_cycle;Max_cycle;Signal;HPM_P1;HPM_P2
2023/11/26 00:00:05;;;;;;;2.20;1.20;;;;;;;-0.75;85.78;92192.63;5057685;28;20029;-68
2023/11/26 00:02:30;;;;;;;2.58;1.30;;;;;;;-0.63;85.72;92195.91;5070972;28;20486;-68
2023/11/26 00:04:56;;;;;;;2.17;1.58;;;;;;;-0.69;85.57;92198.97;5088815;28;20032;-68
2023/11/26 00:07:21;;;;;;;1.98;1.20;;;;;;;-0.74;85.41;92203.63;5088669;28;20209;-68
2023/11/26 00:09:46;;;;;;;2.15;1.20;;;;;;;-0.60;85.28;92210.16;5088406;28;20044;-68
2023/11/26 00:12:12;;;;;;;2.05;1.30;;;;;;;-0.86;85.83;92166.34;5088549;28;20020;-68
2023/11/26 00:14:38;;;;;;;2.50;1.40;;;;;;;-0.65;85.44;92187.56;5071734;28;20037;-68
2023/11/26 00:17:04;;;;;;;2.15;1.40;;;;;;;-0.50;85.08;92206.75;5105110;28;20037;-68
2023/11/26 00:19:30;;;;;;;2.30;1.40;;;;;;;-0.49;84.63;92190.50;5071718;28;20040;-68
2023/11/26 00:21:56;;;;;;;1.38;0.95;;;;;;;-0.54;84.77;92207.09;5072394;28;20052;-68
2023/11/26 00:24:21;;;;;;;2.42;1.25;;;;;;;-0.67;84.57;92189.44;5072984;28;20028;-68
2023/11/26 00:26:47;;;;;;;2.88;1.80;;;;;;;-0.51;85.46;92200.00;5088427;28;20544;-68
2023/11/26 00:29:12;;;;;;;2.40;1.45;;;;;;;-0.64;84.85;92204.50;5105198;28;20040;-68
2023/11/26 00:31:38;;;;;;;1.58;1.00;;;;;;;-0.62;85.03;92200.06;5036916;28;20017;-68
2023/11/26 00:34:04;;;;;;;2.25;1.30;;;;;;;-0.70;85.43;92192.22;5071298;28;20045;-68
2023/11/26 00:36:30;;;;;;;2.33;1.10;;;;;;;-0.56;85.12;92191.91;5072537;28;20043;-68
2023/11/26 00:38:56;;;;;;;3.33;1.17;;;;;;;-0.44;85.52;92195.22;5105147;28;20032;-68
2023/11/26 00:41:21;;;;;;;2.15;1.40;;;;;;;-0.44;84.97;92209.75;5054557;28;20040;-69
2023/11/26 00:43:47;;;;;;;1.95;1.38;;;;;;;-0.45;84.74;92208.91;5071122;28;20114;-68
2023/11/26 00:46:13;;;;;;;2.67;1.42;;;;;;;-0.41;84.53;92206.94;5071088;28;20068;-68
2023/11/26 00:48:38;;;;;;;3.03;1.88;;;;;;;-0.56;84.84;92196.22;5071941;28;20071;-68
2023/11/26 00:51:06;;;;;;;3.95;3.42;;;;;;;-0.38;84.37;92210.03;5072336;28;20016;-68
2023/11/26 00:53:35;;;;;;;2.10;1.30;;;;;;;-0.50;85.20;92203.38;5070546;28;20033;-68
2023/11/26 00:56:01;;;;;;;2.22;1.50;;;;;;;-0.69;85.16;92209.16;5072012;28;20098;-68
2023/11/26 00:58:27;;;;;;;2.30;1.17;;;;;;;-0.72;85.23;92210.22;5103315;28;20449;-68
2023/11/26 01:00:52;;;;;;;2.42;1.50;;;;;;;-0.70;85.23;92230.47;5087568;28;20024;-69
2023/11/26 01:03:21;;;;;;;4.03;2.30;;;;;;;-0.65;85.86;92225.03;5070439;28;20031;-68
2023/11/26 01:05:47;;;;;;;3.17;1.40;;;;;;;-0.71;85.88;92237.31;5103872;28;20552;-68
2023/11/26 01:08:14;;;;;;;1.95;1.30;;;;;;;-0.77;85.63;92209.78;5070973;28;20051;-68
2023/11/26 01:10:39;;;;;;;2.38;1.20;;;;;;;-0.61;85.60;92241.69;5072366;28;20032;-69
2023/11/26 01:13:06;;;;;;;1.95;1.30;;;;;;;-0.57;85.30;92240.50;5070614;28;20032;-68
2023/11/26 01:15:33;;;;;;;1.75;0.98;;;;;;;-0.69;85.72;92257.63;5070381;28;20028;-68
2023/11/26 01:17:58;;;;;;;2.10;1.10;;;;;;;-0.56;85.59;92258.22;5070181;28;20028;-68
2023/11/26 01:20:24;;;;;;;2.83;1.95;;;;;;;-0.59;85.83;92257.66;5104607;28;20037;-68
2023/11/26 01:22:49;;;;;;;2.60;1.63;;;;;;;-0.75;85.49;92233.41;5104284;28;20029;-68
2023/11/26 01:25:14;;;;;;;1.77;1.25;;;;;;;-0.88;85.59;92253.16;5072066;28;20082;-68
2023/11/26 01:27:40;;;;;;;2.13;1.40;;;;;;;-0.83;85.90;92271.47;5071108;28;20039;-68
2023/11/26 01:30:06;;;;;;;2.40;1.70;;;;;;;-0.82;86.21;92272.25;5070236;28;20036;-68
2023/11/26 01:32:32;;;;;;;2.67;1.27;;;;;;;-0.51;85.35;92278.28;5053671;28;20036;-68
2023/11/26 01:34:58;;;;;;;1.90;1.20;;;;;;;-0.56;84.54;92273.53;5053311;28;20043;-68
2023/11/26 01:37:24;;;;;;;2.08;1.52;;;;;;;-0.62;85.28;92268.94;5071355;28;20024;-68
2023/11/26 01:39:49;;;;;;;2.47;1.85;;;;;;;-0.51;85.01;92280.81;5037051;28;20036;-68
2023/11/26 01:42:15;;;;;;;2.30;1.52;;;;;;;-0.55;85.04;92287.91;5070125;28;20035;-68
2023/11/26 01:44:40;;;;;;;4.97;4.47;;;;;;;-0.69;84.41;92272.91;5053500;28;20033;-69
2023/11/26 01:47:06;;;;;;;1.73;1.20;;;;;;;-0.70;84.81;92286.56;5071171;28;20411;-68
2023/11/26 01:49:32;;;;;;;2.58;1.50;;;;;;;-0.71;85.23;92290.88;5053482;28;20479;-68
2023/11/26 01:51:59;;;;;;;1.65;1.20;;;;;;;-0.68;85.33;92302.56;5053353;28;20089;-68
2023/11/26 01:54:25;;;;;;;2.13;1.48;;;;;;;-0.68;85.14;92308.47;5053453;28;20028;-68
2023/11/26 01:56:50;;;;;;;2.35;1.20;;;;;;;-0.65;85.30;92312.53;5069815;28;20394;-68
2023/11/26 01:59:16;;;;;;;1.70;1.08;;;;;;;-0.79;85.10;92308.50;5052569;28;20033;-68
2023/11/26 02:01:41;;;;;;;1.70;1.20;;;;;;;-0.63;85.43;92310.66;5086625;28;20036;-68
2023/11/26 02:04:07;;;;;;;2.58;1.30;;;;;;;-0.54;85.09;92332.09;5103643;28;20020;-68
2023/11/26 02:06:33;;;;;;;2.25;1.50;;;;;;;-0.60;84.89;92328.28;5070987;28;20025;-68
2023/11/26 02:08:58;;;;;;;1.90;1.17;;;;;;;-0.50;84.74;92343.69;5086148;28;20059;-68
2023/11/26 02:11:24;;;;;;;2.72;2.45;;;;;;;-0.67;84.92;92329.69;5069696;28;20067;-68
2023/11/26 02:13:52;;;;;;;1.95;1.52;;;;;;;-0.56;84.57;92354.34;5070880;28;20040;-68
2023/11/26 02:16:17;;;;;;;2.00;1.20;;;;;;;-0.69;84.74;92344.31;5070915;28;20495;-68
2023/11/26 02:18:43;;;;;;;1.60;1.10;;;;;;;-0.73;85.37;92346.25;5069455;28;20028;-68
2023/11/26 02:21:08;;;;;;;1.70;1.20;;;;;;;-0.86;85.00;92330.34;5069678;28;20024;-68
2023/11/26 02:23:37;;;;;;;1.80;1.30;;;;;;;-0.76;86.22;92363.56;5052776;28;20031;-68
2023/11/26 02:26:06;;;;;;;2.00;1.20;;;;;;;-0.69;86.10;92373.16;5069547;28;20024;-68
2023/11/26 02:28:32;;;;;;;1.90;1.10;;;;;;;-0.85;85.78;92388.03;5086075;28;20020;-68
2023/11/26 02:30:57;;;;;;;1.83;1.10;;;;;;;-0.75;86.16;92376.19;5069487;28;20556;-68
2023/11/26 02:33:23;;;;;;;2.00;1.33;;;;;;;-0.63;86.51;92388.91;5070502;28;20032;-68
2023/11/26 02:35:48;;;;;;;1.30;1.00;;;;;;;-0.70;85.84;92391.94;5086328;28;20032;-67
2023/11/26 02:38:14;;;;;;;1.27;0.88;;;;;;;-0.75;86.17;92383.03;5103201;28;20090;-68
2023/11/26 02:40:39;;;;;;;1.80;1.30;;;;;;;-0.61;85.91;92399.78;5070582;28;20090;-68
2023/11/26 02:43:05;;;;;;;2.00;1.10;;;;;;;-0.64;85.85;92405.13;5103131;28;20036;-68
2023/11/26 02:45:31;;;;;;;1.70;1.30;;;;;;;-0.60;85.55;92417.53;5103182;28;20475;-68
2023/11/26 02:47:56;;;;;;;1.70;1.20;;;;;;;-0.68;85.80;92407.91;5102603;28;20036;-68
2023/11/26 02:50:23;;;;;;;1.70;1.20;;;;;;;-0.66;85.73;92415.47;5103358;28;20039;-68
2023/11/26 02:52:48;;;;;;;1.60;1.30;;;;;;;-0.56;84.83;92416.34;5070496;28;20037;-68
2023/11/26 02:55:14;;;;;;;1.80;1.33;;;;;;;-0.52;85.14;92411.84;5055645;28;20029;-68
2023/11/26 02:57:39;;;;;;;1.92;1.38;;;;;;;-0.48;84.38;92419.13;5106740;28;20115;-68
2023/11/26 03:00:15;;;;;;;2.33;1.38;;;;;;;-0.75;84.63;92422.09;5073403;28;20700;-68
2023/11/26 03:02:44;;;;;;;2.45;1.40;;;;;;;-0.70;85.30;92437.00;5088727;28;20043;-68
2023/11/26 03:05:17;;;;;;;2.45;1.38;;;;;;;-0.87;85.55;92399.25;5073251;28;20034;-68
2023/11/26 03:07:45;;;;;;;1.90;1.50;;;;;;;-0.56;85.46;92456.34;5073131;28;20468;-68
2023/11/26 03:13:07;;;;;;;1.55;1.17;;;;;;;-0.65;85.02;92452.78;5072557;28;20051;-68
2023/11/26 03:15:35;;;;;;;1.50;0.98;;;;;;;-0.69;85.66;92456.50;5074023;28;20448;-68
2023/11/26 13:56:44;;;;;;;22.50;15.70;;;;;;;-1.43;61.61;93761.19;5149644;27;20384;-69
2023/11/26 13:59:10;;;;;;;29.33;15.00;;;;;;;-1.20;62.58;93785.47;5149731;27;20031;-69
2023/11/26 14:01:36;;;;;;;10.98;7.95;;;;;;;-1.67;61.45;93759.91;5149719;27;20019;-69
2023/11/26 14:04:01;;;;;;;20.40;9.15;;;;;;;-1.45;61.53;93782.53;5149579;27;20026;-69
2023/11/26 14:06:27;;;;;;;15.25;9.63;;;;;;;-1.37;62.30;93795.69;5131002;27;20022;-70
2023/11/26 14:08:52;;;;;;;6.50;5.05;;;;;;;-1.52;60.92;93784.59;5149501;27;20030;-69
2023/11/26 14:11:20;;;;;;;7.68;5.28;;;;;;;-1.48;62.93;93793.72;5148281;27;20084;-69
2023/11/26 14:13:45;;;;;;;13.18;7.35;;;;;;;-1.46;63.06;93798.75;5148137;27;20484;-70
2023/11/26 14:16:15;;;;;;;11.43;7.50;;;;;;;-1.46;62.41;93797.00;5148079;27;20084;-69
2023/11/26 14:18:40;;;;;;;10.73;6.85;;;;;;;-1.54;62.84;93814.41;5148220;27;20061;-69
2023/11/26 14:21:06;;;;;;;17.80;7.40;;;;;;;-1.51;63.39;93798.97;5148185;27;20484;-70
2023/11/26 14:42:20;;;;;;;9.60;5.35;;;;;;;-1.20;61.87;93831.34;5149760;27;20766;-71
2023/11/26 14:44:46;;;;;;;10.70;6.30;;;;;;;-1.37;63.02;93847.47;5133391;27;20173;-71
2023/11/26 14:47:11;;;;;;;8.27;5.85;;;;;;;-1.60;62.84;93840.22;5128979;27;20043;-71
2023/11/26 14:49:38;;;;;;;8.90;5.40;;;;;;;-1.56;62.76;93854.44;5128886;27;20109;-71
2023/11/26 14:52:08;;;;;;;5.30;3.58;;;;;;;-1.68;62.69;93858.41;5128804;27;20016;-71
2023/11/26 14:54:36;;;;;;;6.63;4.85;;;;;;;-1.57;62.99;93852.78;5115794;28;20019;-72
2023/11/26 14:57:02;;;;;;;8.90;6.65;;;;;;;-1.68;63.73;93855.06;5107398;28;20477;-71
2023/11/26 14:59:28;;;;;;;5.38;4.20;;;;;;;-1.63;63.86;93860.75;5115342;28;20027;-70
2023/11/26 15:01:53;;;;;;;5.95;4.38;;;;;;;-1.69;65.66;93866.16;5088578;27;20035;-71
2023/11/26 15:04:19;;;;;;;7.75;3.88;;;;;;;-1.82;65.44;93855.75;5126586;27;20103;-72
2023/11/26 15:06:44;;;;;;;9.30;6.00;;;;;;;-1.82;65.73;93859.09;5122736;27;20047;-71
2023/11/26 15:48:41;;;;;;;22.02;13.73;;;;;;;-1.18;63.47;93903.41;5145055;27;20396;-69
2023/11/26 15:51:06;;;;;;;35.08;17.85;;;;;;;-1.41;65.89;93868.94;5145289;27;20039;-67
2023/11/26 15:53:32;;;;;;;33.53;19.70;;;;;;;-1.32;64.50;93884.66;5122338;28;20033;-70
2023/11/26 15:55:57;;;;;;;14.52;9.35;;;;;;;-1.28;64.45;93901.41;5124716;28;20019;-69
2023/11/26 15:58:25;;;;;;;12.75;7.25;;;;;;;-1.18;63.52;93911.06;5123003;27;20034;-68
2023/11/26 16:00:51;;;;;;;12.07;9.10;;;;;;;-1.28;62.84;93903.97;5123269;27;20512;-69
2023/11/26 16:03:16;;;;;;;21.42;11.80;;;;;;;-1.27;64.24;93908.19;5115278;27;20073;-70
2023/11/26 16:05:41;;;;;;;7.63;5.07;;;;;;;-1.45;64.02;93899.72;5122851;28;20459;-70
2023/11/26 16:08:08;;;;;;;8.82;5.40;;;;;;;-1.35;63.60;93889.00;5121047;27;20043;-71
2023/11/26 16:10:33;;;;;;;8.35;5.43;;;;;;;-1.25;65.25;93888.56;5105892;28;20108;-69
2023/11/26 16:12:59;;;;;;;9.00;5.78;;;;;;;-1.41;66.55;93896.16;5121936;27;20101;-69
2023/11/26 16:15:26;;;;;;;7.45;5.15;;;;;;;-1.54;65.47;93895.13;5121805;28;20034;-70
2023/11/26 16:17:51;;;;;;;10.73;6.30;;;;;;;-1.53;65.21;93902.69;5125980;27;20050;-71
2023/11/26 16:20:17;;;;;;;17.67;9.75;;;;;;;-1.82;65.51;93876.94;5122738;27;20019;-71
2023/11/26 16:22:42;;;;;;;16.98;9.40;;;;;;;-1.53;65.81;93895.06;5104142;28;20080;-69
2023/11/26 16:25:09;;;;;;;22.40;11.25;;;;;;;-1.48;64.23;93898.16;5123218;28;20031;-68
2023/11/26 16:27:35;;;;;;;27.85;13.02;;;;;;;-1.60;65.51;93898.78;5124777;27;20417;-70
2023/11/26 16:30:02;;;;;;;11.70;6.10;;;;;;;-1.50;63.16;93912.72;5124196;28;20512;-70
2023/11/26 16:32:28;;;;;;;23.55;11.88;;;;;;;-1.50;64.45;93912.72;5105915;28;20035;-69
2023/11/26 16:34:53;;;;;;;16.45;9.93;;;;;;;-1.65;65.21;93910.94;5121203;28;20015;-69
2023/11/26 16:37:19;;;;;;;18.38;11.38;;;;;;;-1.47;62.79;93915.13;5122635;27;20046;-67
2023/11/26 16:39:45;;;;;;;6.63;4.00;;;;;;;-1.56;62.78;93910.50;5123916;28;20039;-68
2023/11/26 16:42:10;;;;;;;9.70;5.68;;;;;;;-1.49;63.38;93927.09;5122556;27;20065;-69
2023/11/26 16:44:37;;;;;;;27.63;15.77;;;;;;;-1.45;62.52;93923.50;5121570;27;20398;-67
2023/11/26 16:47:03;;;;;;;11.13;6.68;;;;;;;-1.59;62.22;93923.34;5106254;28;20562;-66
2023/11/26 16:49:28;;;;;;;17.50;9.25;;;;;;;-1.40;64.55;93920.72;5092805;28;20019;-66
2023/11/26 16:51:53;;;;;;;17.77;10.95;;;;;;;-1.37;63.37;93935.84;5109121;28;20031;-66
2023/11/26 16:54:19;;;;;;;22.17;12.68;;;;;;;-1.33;63.36;93951.81;5089012;28;20024;-66
2023/11/26 16:56:44;;;;;;;20.13;12.27;;;;;;;-1.21;62.08;93948.63;5092055;28;20039;-68
2023/11/26 16:59:11;;;;;;;12.88;8.25;;;;;;;-1.30;63.35;93927.00;5108405;28;20023;-69
2023/11/26 17:01:36;;;;;;;21.15;12.25;;;;;;;-1.17;64.31;93934.81;5109106;28;20031;-68
2023/11/26 17:04:02;;;;;;;16.58;9.35;;;;;;;-1.22;64.14;93957.19;5087773;28;20424;-69
2023/11/26 17:06:31;;;;;;;13.75;7.82;;;;;;;-1.31;65.14;93957.66;5109993;28;20032;-68
2023/11/26 17:08:56;;;;;;;13.65;7.07;;;;;;;-1.23;65.74;93960.63;5109469;28;20497;-68
2023/11/26 17:11:22;;;;;;;26.27;14.43;;;;;;;-1.14;65.81;93961.00;5074065;28;20046;-68
2023/11/26 17:13:47;;;;;;;9.23;5.57;;;;;;;-1.10;64.24;93946.38;5107353;28;20072;-69
2023/11/26 17:16:14;;;;;;;7.88;5.53;;;;;;;-1.05;64.17;93962.25;5109111;28;20052;-68
2023/11/26 17:18:39;;;;;;;13.00;6.88;;;;;;;-1.12;64.08;93948.97;5091676;28;20178;-69
2023/11/26 17:21:05;;;;;;;9.05;6.18;;;;;;;-1.08;66.58;93944.56;5109412;28;20040;-69
2023/11/26 17:23:30;;;;;;;8.98;5.53;;;;;;;-0.91;68.53;93975.13;5104839;28;20027;-70
2023/11/26 17:25:56;;;;;;;6.57;4.53;;;;;;;-0.94;69.49;93979.56;5109570;28;20397;-65
2023/11/26 17:28:22;;;;;;;7.35;4.80;;;;;;;-1.16;68.19;93975.53;5108725;27;20035;-64
2023/11/26 17:30:47;;;;;;;5.40;3.40;;;;;;;-1.14;66.37;93981.41;5109785;28;20031;-65
2023/11/26 17:33:13;;;;;;;5.68;3.65;;;;;;;-1.04;67.92;93984.28;5104988;28;20092;-66
2023/11/26 17:35:38;;;;;;;17.73;11.15;;;;;;;-1.09;67.11;93986.25;5108129;28;20027;-68
2023/11/26 17:38:03;;;;;;;17.13;10.25;;;;;;;-1.01;66.93;93991.78;5108025;28;20036;-67
2023/11/26 17:40:29;;;;;;;5.57;3.92;;;;;;;-0.97;68.01;93990.75;5107144;28;20027;-69
2023/11/26 17:42:54;;;;;;;10.48;8.38;;;;;;;-0.99;65.90;93999.38;5107020;28;20036;-67
2023/11/26 17:45:20;;;;;;;37.05;22.13;;;;;;;-0.99;65.66;93989.97;5073995;28;20456;-67
2023/11/26 17:47:46;;;;;;;17.15;9.27;;;;;;;-1.00;64.02;94016.41;5139776;27;20074;-67
2023/11/26 17:50:14;;;;;;;15.07;8.40;;;;;;;-0.93;65.58;94010.06;5109237;28;20024;-67
2023/11/26 17:52:41;;;;;;;20.15;10.50;;;;;;;-0.91;64.94;94018.47;5073536;28;20046;-67
2023/11/26 17:55:08;;;;;;;15.63;8.00;;;;;;;-0.96;64.04;94033.16;5089142;28;20023;-68
2023/11/26 17:57:34;;;;;;;24.40;16.17;;;;;;;-0.80;64.67;94028.13;5089526;28;20028;-66
2023/11/26 18:00:00;;;;;;;21.08;13.48;;;;;;;-0.74;64.98;94035.47;5106124;28;20076;-68
2023/11/26 18:02:25;;;;;;;8.32;5.82;;;;;;;-0.83;64.08;94033.38;5107530;28;20500;-68
2023/11/26 18:04:51;;;;;;;14.48;6.97;;;;;;;-0.74;66.21;94065.25;5103908;28;20538;-67
2023/11/26 18:07:17;;;;;;;8.82;6.30;;;;;;;-0.81;63.77;94081.75;5109152;28;20503;-68
2023/11/26 18:09:42;;;;;;;20.70;15.02;;;;;;;-0.86;63.64;94068.41;5090291;28;20032;-67
2023/11/26 18:12:08;;;;;;;6.43;3.30;;;;;;;-0.90;64.71;94090.69;5090882;28;20031;-67
2023/11/26 18:14:33;;;;;;;3.15;2.60;;;;;;;-1.00;64.57;94075.03;5087808;28;20016;-67
2023/11/26 18:17:02;;;;;;;6.50;4.13;;;;;;;-1.19;66.04;94053.91;5107221;28;20043;-66
2023/11/26 18:19:27;;;;;;;5.43;3.60;;;;;;;-0.86;64.74;94096.44;5105102;27;20034;-66
2023/11/26 18:21:53;;;;;;;18.05;12.07;;;;;;;-0.83;66.79;94103.97;5089405;28;20047;-66
2023/11/26 18:24:19;;;;;;;15.77;9.27;;;;;;;-0.75;68.33;94101.88;5102897;28;20027;-66
2023/11/26 18:26:48;;;;;;;11.27;7.13;;;;;;;-0.80;70.31;94101.28;5109669;28;20563;-68
2023/11/26 18:29:13;;;;;;;14.85;10.45;;;;;;;-0.95;71.48;94101.13;5088556;28;20099;-67
2023/11/26 18:31:42;;;;;;;14.07;8.57;;;;;;;-1.05;72.39;94111.84;5108510;28;20038;-66
2023/11/26 18:34:07;;;;;;;14.13;7.60;;;;;;;-0.89;71.10;94125.50;5103307;28;20111;-66
2023/11/26 18:36:33;;;;;;;8.88;5.22;;;;;;;-1.28;71.83;94100.19;5108142;28;20551;-66
2023/11/26 18:38:59;;;;;;;11.38;7.00;;;;;;;-1.07;72.32;94144.25;5107598;28;20030;-65
2023/11/26 18:41:24;;;;;;;7.82;5.05;;;;;;;-1.14;72.93;94136.06;5107065;28;20088;-67
2023/11/26 18:43:54;;;;;;;6.43;4.40;;;;;;;-1.21;73.39;94143.19;5086991;28;20019;-67
2023/11/26 18:46:20;;;;;;;7.28;5.65;;;;;;;-1.16;73.94;94135.31;5073219;28;20443;-65
2023/11/26 18:48:45;;;;;;;10.95;9.15;;;;;;;-1.20;73.75;94114.25;5089306;28;20053;-67
2023/11/26 18:51:10;;;;;;;9.10;6.15;;;;;;;-1.00;72.73;94115.84;5108271;28;20027;-66
2023/11/26 18:53:36;;;;;;;6.97;4.45;;;;;;;-1.16;73.27;94084.34;5086209;28;20035;-67
2023/11/26 18:56:02;;;;;;;13.95;8.88;;;;;;;-1.00;72.50;94120.94;5105785;28;20034;-67
2023/11/26 18:58:29;;;;;;;6.35;3.92;;;;;;;-0.97;73.12;94114.84;5107635;28;20027;-67
2023/11/26 19:00:54;;;;;;;13.45;8.45;;;;;;;-0.99;69.45;94106.44;5106787;28;20463;-66
2023/11/26 19:03:20;;;;;;;7.60;4.95;;;;;;;-0.91;71.08;94096.69;5086177;28;20032;-67
2023/11/26 19:05:46;;;;;;;13.52;10.25;;;;;;;-1.02;70.73;94112.53;5090072;28;20026;-65
2023/11/26 19:08:11;;;;;;;13.50;10.15;;;;;;;-1.04;68.59;94077.81;5103346;28;20035;-65
2023/11/26 19:10:38;;;;;;;13.65;8.98;;;;;;;-1.05;70.84;94107.56;5088695;28;20026;-65
2023/11/26 19:13:04;;;;;;;8.00;5.00;;;;;;;-1.10;68.66;94109.53;5089386;28;20035;-65
2023/11/26 19:15:30;;;;;;;10.88;9.23;;;;;;;-1.00;67.44;94105.63;5105633;28;20031;-68
2023/11/26 19:17:55;;;;;;;8.48;6.55;;;;;;;-1.03;69.90;94121.09;5105889;28;20566;-67
2023/11/26 19:20:21;;;;;;;5.07;3.92;;;;;;;-1.10;67.70;94134.19;5088180;28;20044;-67
2023/11/26 19:22:46;;;;;;;12.95;8.25;;;;;;;-1.09;70.08;94139.19;5106086;28;20031;-67
2023/11/26 19:25:13;;;;;;;8.57;5.18;;;;;;;-1.07;70.18;94139.97;5104749;28;20139;-68
2023/11/26 19:27:38;;;;;;;6.35;4.55;;;;;;;-1.03;69.87;94120.22;5087926;28;20079;-67
2023/11/26 19:30:05;;;;;;;8.18;6.22;;;;;;;-0.78;70.50;94143.66;5071198;28;20500;-69
2023/11/26 19:32:31;;;;;;;4.72;3.50;;;;;;;-0.96;70.43;94137.72;5088810;28;20034;-67
2023/11/26 19:34:59;;;;;;;4.63;3.40;;;;;;;-1.21;71.71;94138.06;5104761;28;20099;-67
2023/11/26 19:37:26;;;;;;;7.00;5.88;;;;;;;-1.32;70.94;94144.59;5107739;28;20032;-68
2023/11/26 19:39:52;;;;;;;5.65;3.85;;;;;;;-1.29;68.74;94147.00;5089113;28;20328;-67
2023/11/26 19:42:17;;;;;;;3.75;2.90;;;;;;;-1.21;68.28;94165.28;5105277;28;20421;-67
2023/11/26 19:44:43;;;;;;;6.10;5.05;;;;;;;-1.30;68.28;94160.63;5088380;28;20046;-67
2023/11/26 19:47:08;;;;;;;4.32;3.17;;;;;;;-1.33;67.70;94168.44;5088641;28;20535;-67
2023/11/26 19:49:33;;;;;;;6.38;5.70;;;;;;;-1.27;67.50;94168.13;5106187;28;20480;-67
2023/11/26 19:52:00;;;;;;;7.97;7.07;;;;;;;-1.45;68.71;94180.84;5071491;28;20028;-67
2023/11/26 19:54:26;;;;;;;4.65;3.65;;;;;;;-1.32;70.53;94206.56;5106309;28;20066;-68
2023/11/26 19:56:51;;;;;;;5.20;3.97;;;;;;;-1.43;72.31;94209.59;5107264;28;20416;-67
2023/11/26 19:59:23;;;;;;;4.72;3.45;;;;;;;-1.55;73.14;94207.63;5106167;28;20489;-67
2023/11/26 20:01:49;;;;;;;5.65;4.05;;;;;;;-1.61;75.55;94225.75;5088654;28;20028;-67
2023/11/26 20:04:14;;;;;;;7.63;5.43;;;;;;;-1.78;78.12;94220.56;5105684;28;20066;-67
2023/11/26 20:06:40;;;;;;;8.15;7.35;;;;;;;-1.95;78.47;94224.69;5104086;28;20560;-67
2023/11/26 20:09:05;;;;;;;11.10;6.28;;;;;;;-1.83;76.74;94213.97;5106342;28;20024;-68
2023/11/26 20:11:34;;;;;;;5.03;3.50;;;;;;;-1.83;77.01;94211.41;5071547;28;20070;-68
2023/11/26 20:13:59;;;;;;;13.45;10.95;;;;;;;-1.92;76.97;94211.81;5088390;28;20018;-67
2023/11/26 20:16:25;;;;;;;6.28;3.33;;;;;;;-1.92;76.54;94221.16;5103826;28;20028;-68
2023/11/26 20:18:54;;;;;;;6.25;3.85;;;;;;;-1.88;75.41;94227.78;5105584;28;20089;-68
2023/11/26 20:21:23;;;;;;;7.22;4.65;;;;;;;-1.83;73.49;94220.78;5088670;28;20102;-67
2023/11/26 20:23:48;;;;;;;5.30;3.55;;;;;;;-1.74;71.54;94202.53;5108246;28;20054;-68
2023/11/26 20:26:18;;;;;;;9.82;6.05;;;;;;;-1.77;71.76;94217.94;5090163;28;20020;-67
2023/11/26 20:28:44;;;;;;;5.28;3.47;;;;;;;-1.82;70.60;94223.25;5093262;28;20039;-68
2023/11/26 20:31:10;;;;;;;5.90;3.83;;;;;;;-1.91;71.19;94233.84;5109047;28;20043;-67
2023/11/26 20:33:39;;;;;;;5.47;4.35;;;;;;;-1.92;68.12;94232.19;5090807;28;20036;-68
2023/11/26 20:36:06;;;;;;;6.00;4.20;;;;;;;-1.74;68.11;94237.38;5090452;28;20030;-67
2023/11/26 20:38:32;;;;;;;4.60;3.00;;;;;;;-1.79;68.55;94252.84;5095034;28;20066;-67
2023/11/26 20:40:58;;;;;;;3.58;3.00;;;;;;;-1.77;67.35;94238.31;5108451;28;20027;-67
2023/11/26 20:43:24;;;;;;;4.60;3.40;;;;;;;-1.69;66.26;94256.66;5109937;28;20016;-68
2023/11/26 20:45:49;;;;;;;5.15;3.88;;;;;;;-1.68;64.68;94247.28;5090039;28;20038;-68
2023/11/26 20:48:15;;;;;;;3.83;3.00;;;;;;;-1.78;65.88;94254.50;5109230;28;20058;-67
2023/11/26 20:50:40;;;;;;;5.28;3.67;;;;;;;-1.73;65.26;94264.47;5108250;28;20451;-67
2023/11/26 20:53:06;;;;;;;3.50;2.20;;;;;;;-1.77;64.25;94255.34;5112532;27;20039;-67
2023/11/26 20:55:31;;;;;;;4.25;3.08;;;;;;;-1.83;65.42;94254.69;5107741;28;20035;-67
2023/11/26 20:57:57;;;;;;;3.55;2.10;;;;;;;-1.93;65.12;94255.97;5108643;28;20300;-67
2023/11/26 21:00:22;;;;;;;3.88;2.45;;;;;;;-1.92;66.07;94255.09;5109508;27;20027;-67
2023/11/26 21:02:49;;;;;;;6.03;3.75;;;;;;;-1.85;62.75;94250.56;5074922;28;20046;-68
2023/11/26 21:05:14;;;;;;;3.45;2.28;;;;;;;-1.76;63.73;94259.53;5107475;28;20020;-68
2023/11/26 21:07:40;;;;;;;11.18;6.20;;;;;;;-1.81;64.71;94254.66;5108736;27;20034;-67
2023/11/26 21:10:06;;;;;;;4.22;2.78;;;;;;;-1.91;63.21;94249.13;5073122;28;20479;-67
2023/11/26 21:12:32;;;;;;;2.80;2.10;;;;;;;-2.02;64.34;94236.03;5091393;28;20039;-67
2023/11/26 21:14:57;;;;;;;3.00;2.38;;;;;;;-2.06;64.05;94249.78;5089532;28;20027;-67
2023/11/26 21:17:23;;;;;;;3.45;2.50;;;;;;;-2.09;64.72;94265.16;5108355;27;20374;-67
2023/11/26 21:19:49;;;;;;;3.30;2.67;;;;;;;-2.14;63.32;94272.19;5108998;28;20043;-68
2023/11/26 21:22:15;;;;;;;3.13;2.00;;;;;;;-2.07;63.49;94268.47;5109812;27;20038;-67
2023/11/26 21:24:41;;;;;;;3.13;2.10;;;;;;;-2.12;64.17;94265.31;5107896;28;20027;-67
2023/11/26 21:27:08;;;;;;;4.47;2.90;;;;;;;-2.22;64.49;94272.50;5106910;28;20036;-68
2023/11/26 21:29:33;;;;;;;4.70;2.70;;;;;;;-2.18;64.28;94271.47;5107655;28;20517;-67
2023/11/26 21:31:59;;;;;;;4.00;2.72;;;;;;;-2.24;64.69;94289.56;5089678;28;20039;-67
2023/11/26 21:34:24;;;;;;;4.85;2.58;;;;;;;-2.18;63.95;94291.00;5105014;28;20026;-67
2023/11/26 21:36:50;;;;;;;5.60;2.47;;;;;;;-2.28;65.60;94276.13;5106217;28;20490;-67
2023/11/26 21:39:15;;;;;;;3.78;2.17;;;;;;;-2.33;64.97;94292.47;5104826;28;20076;-67
2023/11/26 21:41:44;;;;;;;3.33;2.10;;;;;;;-2.34;64.65;94281.50;5107006;28;20058;-67
2023/11/26 21:44:10;;;;;;;4.95;2.50;;;;;;;-2.33;65.77;94297.56;5090253;28;20032;-67
2023/11/26 21:46:35;;;;;;;2.45;1.63;;;;;;;-2.40;64.60;94285.97;5089047;28;20043;-67
2023/11/26 21:49:05;;;;;;;2.92;2.17;;;;;;;-2.43;64.15;94289.47;5091093;28;20778;-67
2023/11/26 21:51:30;;;;;;;2.42;1.70;;;;;;;-2.53;64.49;94311.94;5073866;28;20035;-67
2023/11/26 21:53:56;;;;;;;2.22;1.55;;;;;;;-2.49;64.37;94293.09;5107655;28;20015;-67
2023/11/26 21:56:22;;;;;;;2.83;2.08;;;;;;;-2.51;65.42;94304.22;5107569;28;20054;-67
2023/11/26 21:58:49;;;;;;;3.47;2.00;;;;;;;-2.43;65.86;94286.09;5108790;28;20020;-68
2023/11/26 22:01:15;;;;;;;2.92;1.65;;;;;;;-2.27;66.25;94293.03;5088701;28;20146;-67
2023/11/26 22:03:40;;;;;;;4.07;1.75;;;;;;;-2.42;67.19;94287.75;5108104;28;20024;-68
2023/11/26 22:06:06;;;;;;;2.85;1.95;;;;;;;-2.44;67.35;94285.28;5106765;28;20028;-67
2023/11/26 22:08:31;;;;;;;3.05;2.05;;;;;;;-2.42;66.12;94285.22;5108349;27;20020;-68
2023/11/26 22:10:57;;;;;;;2.70;1.70;;;;;;;-2.55;64.56;94287.44;5106605;28;20500;-67
2023/11/26 22:13:22;;;;;;;2.35;1.70;;;;;;;-2.52;64.12;94282.22;5106146;28;20031;-68
2023/11/26 22:15:47;;;;;;;3.25;1.92;;;;;;;-2.48;61.29;94291.38;5088719;28;20039;-67
2023/11/26 22:18:14;;;;;;;3.22;1.67;;;;;;;-2.51;62.14;94294.03;5108404;28;20050;-67
2023/11/26 22:20:39;;;;;;;4.65;1.88;;;;;;;-2.35;60.59;94306.97;5089669;28;20023;-68
2023/11/26 22:23:04;;;;;;;1.90;1.38;;;;;;;-2.41;60.71;94307.22;5106123;28;20039;-67
2023/11/26 22:25:30;;;;;;;2.72;1.77;;;;;;;-2.38;60.35;94300.28;5106711;28;20027;-67
2023/11/26 22:27:55;;;;;;;5.55;1.60;;;;;;;-2.42;59.81;94308.09;5107187;28;20469;-67
2023/11/26 22:30:21;;;;;;;2.45;1.50;;;;;;;-2.33;59.32;94313.66;5106363;28;20462;-67
2023/11/26 22:32:47;;;;;;;2.95;1.50;;;;;;;-2.50;60.91;94294.00;5106590;27;20066;-67
2023/11/26 22:35:12;;;;;;;3.55;1.83;;;;;;;-2.30;59.64;94311.00;5106538;27;20504;-67
2023/11/26 22:37:37;;;;;;;2.33;1.35;;;;;;;-2.29;59.26;94299.91;5089458;28;20410;-68
2023/11/26 22:40:03;;;;;;;2.60;1.60;;;;;;;-2.30;59.64;94303.34;5089512;28;20466;-67
2023/11/26 22:42:29;;;;;;;3.92;1.50;;;;;;;-2.37;59.95;94306.22;5106202;27;20524;-67
2023/11/26 22:44:54;;;;;;;2.20;1.30;;;;;;;-2.36;59.12;94313.78;5106722;28;20068;-67
2023/11/26 22:47:20;;;;;;;1.58;1.15;;;;;;;-2.43;59.39;94304.75;5107378;28;20047;-67
2023/11/26 22:49:47;;;;;;;2.10;1.30;;;;;;;-2.44;59.57;94312.44;5107439;28;20027;-67
2023/11/26 22:52:12;;;;;;;6.20;3.17;;;;;;;-2.23;58.83;94319.19;5072945;28;20511;-67
2023/11/26 22:54:38;;;;;;;1.90;1.45;;;;;;;-2.23;60.29;94326.00;5106230;28;20023;-67
2023/11/26 22:57:03;;;;;;;2.60;1.38;;;;;;;-2.31;60.48;94305.97;5104739;28;20028;-67
2023/11/26 22:59:29;;;;;;;2.72;1.40;;;;;;;-2.36;59.98;94313.78;5106357;28;20418;-67
2023/11/26 23:01:54;;;;;;;2.13;1.38;;;;;;;-2.27;59.30;94323.59;5088909;28;20027;-67
2023/11/26 23:04:20;;;;;;;2.28;1.58;;;;;;;-2.20;59.40;94339.44;5089502;28;20397;-67